createdAt,value
2022-08-02T00:00:00.222Z,101497.64
2022-08-02T00:00:30.639Z,101495.10
2022-08-02T00:01:01.058Z,101495.08
2022-08-02T00:01:31.542Z,101496.41
2022-08-02T00:02:02.009Z,101497.59
2022-08-02T00:02:32.402Z,101498.27
2022-08-02T00:03:02.847Z,101498.32
2022-08-02T00:03:33.246Z,101500.00
2022-08-02T00:04:03.675Z,101498.83
2022-08-02T00:04:34.095Z,101502.88
2022-08-02T00:05:04.909Z,101497.77
2022-08-02T00:05:35.326Z,101502.10
2022-08-02T00:06:05.745Z,101503.32
2022-08-02T00:06:36.167Z,101508.03
2022-08-02T00:07:06.588Z,101507.23
2022-08-02T00:07:41.009Z,101504.08
2022-08-02T00:08:11.785Z,101503.91
2022-08-02T00:08:42.207Z,101508.98
2022-08-02T00:09:12.629Z,101507.17
2022-08-02T00:09:43.055Z,101510.50
2022-08-02T00:10:13.471Z,101509.37
2022-08-02T00:10:43.892Z,101510.23
2022-08-02T00:11:14.322Z,101509.11
2022-08-02T00:11:44.735Z,101509.58
2022-08-02T00:12:15.152Z,101507.79
2022-08-02T00:12:45.574Z,101510.33
2022-08-02T00:13:15.995Z,101510.66
2022-08-02T00:13:46.414Z,101510.69
2022-08-02T00:14:16.841Z,101509.84
2022-08-02T00:14:47.262Z,101510.23
2022-08-02T00:15:17.682Z,101509.19
2022-08-02T00:15:48.105Z,101509.34
2022-08-02T00:16:18.526Z,101514.59
2022-08-02T00:16:48.945Z,101510.18
2022-08-02T00:17:19.366Z,101511.97
2022-08-02T00:17:49.785Z,101512.47
2022-08-02T00:18:20.205Z,101513.08
2022-08-02T00:18:50.625Z,101515.64
2022-08-02T00:19:21.053Z,101511.62
2022-08-02T00:19:51.472Z,101513.83
2022-08-02T00:20:21.892Z,101514.55
2022-08-02T00:20:52.314Z,101513.70
2022-08-02T00:21:22.737Z,101511.82
2022-08-02T00:21:53.158Z,101512.36
2022-08-02T00:22:23.578Z,101511.12
2022-08-02T00:22:53.997Z,101510.44
2022-08-02T00:23:24.419Z,101508.92
2022-08-02T00:24:28.010Z,101507.95
2022-08-02T00:24:31.009Z,101509.77
2022-08-02T00:25:01.499Z,101508.75
2022-08-02T00:25:31.919Z,101508.75
2022-08-02T00:26:02.338Z,101508.08
2022-08-02T00:26:32.763Z,101507.89
2022-08-02T00:27:03.179Z,101505.52
2022-08-02T00:27:35.459Z,101506.36
2022-08-02T00:28:05.880Z,101503.63
2022-08-02T00:28:36.301Z,101504.14
2022-08-02T00:29:06.743Z,101503.78
2022-08-02T00:29:50.387Z,101500.94
2022-08-02T00:30:12.489Z,101501.30
2022-08-02T00:30:42.910Z,101503.00
2022-08-02T00:31:13.331Z,101500.83
2022-08-02T00:31:43.753Z,101504.23
2022-08-02T00:32:14.169Z,101502.73
2022-08-02T00:32:44.590Z,101499.17
2022-08-02T00:33:15.026Z,101501.03
2022-08-02T00:34:05.257Z,101504.94
2022-08-02T00:34:28.881Z,101498.50
2022-08-02T00:34:57.304Z,101501.02
2022-08-02T00:35:27.726Z,101497.48
2022-08-02T00:35:58.152Z,101497.50
2022-08-02T00:36:28.568Z,101498.68
2022-08-02T00:36:58.991Z,101497.98
2022-08-02T00:37:29.412Z,101496.82
2022-08-02T00:37:59.828Z,101500.20
2022-08-02T00:38:30.249Z,101498.66
2022-08-02T00:39:00.678Z,101498.00
2022-08-02T00:39:34.907Z,101499.36
2022-08-02T00:40:06.053Z,101499.34
2022-08-02T00:40:36.473Z,101500.88
2022-08-02T00:41:06.892Z,101502.58
2022-08-02T00:41:37.334Z,101502.77
2022-08-02T00:42:07.884Z,101500.05
2022-08-02T00:42:38.311Z,101500.02
2022-08-02T00:43:08.731Z,101498.34
2022-08-02T00:43:39.150Z,101500.20
2022-08-02T00:44:09.569Z,101501.20
2022-08-02T00:44:43.048Z,101499.88
2022-08-02T00:45:13.471Z,101501.03
2022-08-02T00:46:02.229Z,101499.53
2022-08-02T00:46:19.211Z,101499.36
2022-08-02T00:46:49.641Z,101501.05
2022-08-02T00:47:20.117Z,101500.88
2022-08-02T00:47:50.488Z,101499.00
2022-08-02T00:48:20.907Z,101502.20
2022-08-02T00:48:51.375Z,101500.20
2022-08-02T00:49:21.824Z,101499.45
2022-08-02T00:49:52.215Z,101500.32
2022-08-02T00:50:22.637Z,101498.16
2022-08-02T00:50:53.057Z,101495.79
2022-08-02T00:51:23.495Z,101498.17
2022-08-02T00:51:53.917Z,101493.61
2022-08-02T00:52:24.504Z,101496.65
2022-08-02T00:52:54.922Z,101498.15
2022-08-02T00:53:25.338Z,101496.65
2022-08-02T00:53:55.756Z,101501.88
2022-08-02T00:54:26.185Z,101504.77
2022-08-02T00:54:56.609Z,101502.78
2022-08-02T00:55:31.168Z,101505.78
2022-08-02T00:56:01.806Z,101502.14
2022-08-02T00:56:32.230Z,101500.80
2022-08-02T00:57:02.652Z,101502.20
2022-08-02T00:57:33.069Z,101500.83
2022-08-02T00:58:03.489Z,101505.14
2022-08-02T00:58:33.908Z,101502.62
2022-08-02T00:59:04.329Z,101498.95
2022-08-02T00:59:34.766Z,101501.31
2022-08-02T01:00:05.186Z,101497.23
2022-08-02T01:00:35.607Z,101501.73
2022-08-02T01:01:06.117Z,101498.34
2022-08-02T01:01:36.597Z,101497.84
2022-08-02T01:02:07.056Z,101503.56
2022-08-02T01:02:37.445Z,101500.52
2022-08-02T01:03:07.864Z,101501.92
2022-08-02T01:03:38.301Z,101503.93
2022-08-02T01:04:08.714Z,101509.17
2022-08-02T01:04:39.141Z,101505.28
2022-08-02T01:05:09.570Z,101507.47
2022-08-02T01:06:02.346Z,101507.30
2022-08-02T01:06:15.313Z,101512.89
2022-08-02T01:06:45.732Z,101510.91
2022-08-02T01:07:16.153Z,101512.44
2022-08-02T01:07:46.576Z,101513.56
2022-08-02T01:08:16.995Z,101513.11
2022-08-02T01:08:47.414Z,101516.61
2022-08-02T01:09:17.851Z,101516.77
2022-08-02T01:09:48.272Z,101515.11
2022-08-02T01:10:18.689Z,101518.02
2022-08-02T01:10:49.111Z,101517.38
2022-08-02T01:11:20.342Z,101515.69
2022-08-02T01:11:50.761Z,101515.05
2022-08-02T01:12:21.178Z,101513.66
2022-08-02T01:12:51.602Z,101516.75
2022-08-02T01:13:22.022Z,101512.70
2022-08-02T01:13:52.446Z,101511.02
2022-08-02T01:14:22.880Z,101511.29
2022-08-02T01:14:53.298Z,101510.58
2022-08-02T01:15:23.714Z,101511.22
2022-08-02T01:15:59.038Z,101513.12
2022-08-02T01:16:29.459Z,101516.39
2022-08-02T01:16:59.875Z,101515.06
2022-08-02T01:17:30.296Z,101515.91
2022-08-02T01:18:00.716Z,101516.59
2022-08-02T01:18:31.133Z,101514.41
2022-08-02T01:19:01.555Z,101515.25
2022-08-02T01:19:31.980Z,101511.75
2022-08-02T01:20:02.398Z,101515.02
2022-08-02T01:20:32.821Z,101515.98
2022-08-02T01:21:03.240Z,101516.36
2022-08-02T01:21:33.836Z,101517.77
2022-08-02T01:22:04.621Z,101513.74
2022-08-02T01:22:59.934Z,101515.39
2022-08-02T01:23:10.363Z,101516.94
2022-08-02T01:23:40.782Z,101514.89
2022-08-02T01:24:11.207Z,101513.51
2022-08-02T01:24:41.629Z,101517.20
2022-08-02T01:25:12.051Z,101515.88
2022-08-02T01:25:42.469Z,101517.61
2022-08-02T01:26:12.890Z,101518.12
2022-08-02T01:26:43.308Z,101519.80
2022-08-02T01:27:13.726Z,101515.45
2022-08-02T01:27:44.148Z,101518.35
2022-08-02T01:28:14.567Z,101520.69
2022-08-02T01:28:44.987Z,101520.06
2022-08-02T01:29:15.406Z,101521.91
2022-08-02T01:29:45.834Z,101519.03
2022-08-02T01:30:16.254Z,101520.72
2022-08-02T01:30:46.676Z,101520.33
2022-08-02T01:31:17.105Z,101522.03
2022-08-02T01:31:47.523Z,101523.95
2022-08-02T01:32:17.943Z,101522.74
2022-08-02T01:32:48.363Z,101526.80
2022-08-02T01:33:18.784Z,101526.30
2022-08-02T01:33:49.210Z,101522.44
2022-08-02T01:34:19.638Z,101524.39
2022-08-02T01:34:50.984Z,101525.89
2022-08-02T01:35:21.405Z,101524.42
2022-08-02T01:35:51.825Z,101525.06
2022-08-02T01:36:22.250Z,101522.39
2022-08-02T01:36:52.667Z,101527.60
2022-08-02T01:37:23.087Z,101523.06
2022-08-02T01:37:53.507Z,101527.17
2022-08-02T01:38:23.927Z,101525.91
2022-08-02T01:38:54.349Z,101525.77
2022-08-02T01:39:27.565Z,101526.06
2022-08-02T01:40:00.121Z,101531.97
2022-08-02T01:40:30.512Z,101530.98
2022-08-02T01:41:00.933Z,101528.45
2022-08-02T01:41:31.352Z,101525.58
2022-08-02T01:42:01.771Z,101527.07
2022-08-02T01:42:32.190Z,101528.77
2022-08-02T01:43:02.614Z,101530.78
2022-08-02T01:43:35.134Z,101530.23
2022-08-02T01:44:05.556Z,101528.87
2022-08-02T01:44:35.974Z,101533.29
2022-08-02T01:45:06.405Z,101533.30
2022-08-02T01:45:36.839Z,101531.11
2022-08-02T01:46:07.261Z,101531.62
2022-08-02T01:46:37.676Z,101528.09
2022-08-02T01:47:08.097Z,101527.08
2022-08-02T01:47:38.518Z,101528.24
2022-08-02T01:48:08.936Z,101529.91
2022-08-02T01:48:39.356Z,101528.41
2022-08-02T01:49:09.849Z,101529.77
2022-08-02T01:49:40.278Z,101524.88
2022-08-02T01:50:10.670Z,101530.59
2022-08-02T01:50:41.094Z,101525.70
2022-08-02T01:51:11.511Z,101530.61
2022-08-02T01:51:41.930Z,101527.27
2022-08-02T01:52:13.003Z,101528.09
2022-08-02T01:52:53.139Z,101526.70
2022-08-02T01:53:18.842Z,101523.62
2022-08-02T01:53:49.264Z,101523.12
2022-08-02T01:54:19.682Z,101524.47
2022-08-02T01:54:50.113Z,101521.58
2022-08-02T01:55:20.531Z,101522.06
2022-08-02T01:55:58.439Z,101527.81
2022-08-02T01:56:26.634Z,101524.34
2022-08-02T01:56:57.058Z,101522.83
2022-08-02T01:57:27.473Z,101524.16
2022-08-02T01:57:57.896Z,101523.45
2022-08-02T01:58:28.315Z,101525.89
2022-08-02T01:58:58.731Z,101524.02
2022-08-02T01:59:29.154Z,101522.78
2022-08-02T01:59:59.590Z,101522.91
2022-08-02T02:00:32.054Z,101525.45
2022-08-02T02:01:02.562Z,101528.16
2022-08-02T02:01:33.097Z,101529.50
2022-08-02T02:02:03.456Z,101525.83
2022-08-02T02:02:33.874Z,101525.31
2022-08-02T02:03:04.304Z,101526.67
2022-08-02T02:03:34.723Z,101528.41
2022-08-02T02:04:05.145Z,101530.62
2022-08-02T02:04:35.566Z,101526.93
2022-08-02T02:05:05.994Z,101528.59
2022-08-02T02:05:36.414Z,101528.42
2022-08-02T02:06:06.838Z,101530.46
2022-08-02T02:06:37.255Z,101530.62
2022-08-02T02:07:07.677Z,101530.95
2022-08-02T02:07:38.093Z,101529.78
2022-08-02T02:08:08.521Z,101529.12
2022-08-02T02:08:38.938Z,101530.33
2022-08-02T02:09:09.355Z,101527.81
2022-08-02T02:09:50.123Z,101527.02
2022-08-02T02:10:15.115Z,101530.06
2022-08-02T02:10:45.538Z,101529.57
2022-08-02T02:12:05.156Z,101529.36
2022-08-02T02:12:13.077Z,101529.05
2022-08-02T02:12:26.604Z,101526.72
2022-08-02T02:12:57.023Z,101525.81
2022-08-02T02:13:33.366Z,101524.97
2022-08-02T02:14:02.767Z,101526.10
2022-08-02T02:14:33.192Z,101524.97
2022-08-02T02:15:03.621Z,101526.63
2022-08-02T02:15:34.037Z,101526.47
2022-08-02T02:16:04.462Z,101525.81
2022-08-02T02:16:34.876Z,101522.81
2022-08-02T02:17:05.297Z,101523.97
2022-08-02T02:17:50.509Z,101523.95
2022-08-02T02:18:13.697Z,101526.48
2022-08-02T02:18:44.344Z,101525.00
2022-08-02T02:19:14.756Z,101525.98
2022-08-02T02:19:50.091Z,101524.12
2022-08-02T02:20:20.510Z,101524.27
2022-08-02T02:20:50.931Z,101526.34
2022-08-02T02:21:21.351Z,101521.98
2022-08-02T02:21:51.770Z,101520.78
2022-08-02T02:22:22.190Z,101526.19
2022-08-02T02:22:54.892Z,101522.70
2022-08-02T02:23:26.423Z,101523.93
2022-08-02T02:24:01.752Z,101524.80
2022-08-02T02:24:32.240Z,101522.07
2022-08-02T02:25:02.611Z,101526.28
2022-08-02T02:25:41.825Z,101527.19
2022-08-02T02:26:12.192Z,101526.48
2022-08-02T02:26:48.647Z,101528.69
2022-08-02T02:27:18.586Z,101528.33
2022-08-02T02:27:49.003Z,101528.30
2022-08-02T02:28:19.426Z,101528.31
2022-08-02T02:28:49.849Z,101527.41
2022-08-02T02:29:20.266Z,101528.81
2022-08-02T02:29:50.687Z,101527.62
2022-08-02T02:30:21.113Z,101526.77
2022-08-02T02:30:51.537Z,101525.81
2022-08-02T02:31:21.954Z,101526.31
2022-08-02T02:31:52.373Z,101523.30
2022-08-02T02:32:22.795Z,101522.94
2022-08-02T02:32:53.215Z,101525.16
2022-08-02T02:33:27.683Z,101524.30
2022-08-02T02:33:58.958Z,101525.89
2022-08-02T02:34:29.379Z,101522.66
2022-08-02T02:34:59.809Z,101523.97
2022-08-02T02:35:30.229Z,101524.77
2022-08-02T02:36:00.651Z,101524.19
2022-08-02T02:36:31.074Z,101525.72
2022-08-02T02:37:01.493Z,101528.06
2022-08-02T02:37:31.914Z,101527.92
2022-08-02T02:38:02.335Z,101530.95
2022-08-02T02:38:32.756Z,101530.60
2022-08-02T02:39:03.176Z,101538.50
2022-08-02T02:39:33.598Z,101533.66
2022-08-02T02:40:04.029Z,101532.48
2022-08-02T02:40:34.447Z,101536.05
2022-08-02T02:41:04.869Z,101535.79
2022-08-02T02:41:35.288Z,101533.44
2022-08-02T02:42:05.707Z,101534.95
2022-08-02T02:42:36.128Z,101535.16
2022-08-02T02:43:06.559Z,101532.70
2022-08-02T02:43:36.977Z,101532.66
2022-08-02T02:44:07.396Z,101532.12
2022-08-02T02:44:37.815Z,101532.26
2022-08-02T02:45:08.253Z,101531.08
2022-08-02T02:45:38.667Z,101533.10
2022-08-02T02:46:09.087Z,101530.46
2022-08-02T02:46:39.505Z,101528.44
2022-08-02T02:47:09.925Z,101531.28
2022-08-02T02:47:41.456Z,101530.06
2022-08-02T02:48:12.186Z,101530.25
2022-08-02T02:48:42.609Z,101532.08
2022-08-02T02:49:13.083Z,101532.09
2022-08-02T02:49:43.469Z,101531.94
2022-08-02T02:50:13.892Z,101533.99
2022-08-02T02:50:44.311Z,101530.60
2022-08-02T02:51:14.731Z,101527.89
2022-08-02T02:51:45.151Z,101531.50
2022-08-02T02:52:15.572Z,101531.50
2022-08-02T02:52:45.993Z,101532.61
2022-08-02T02:53:16.409Z,101532.76
2022-08-02T02:54:31.987Z,101530.80
2022-08-02T02:54:32.728Z,101529.51
2022-08-02T02:54:57.476Z,101531.22
2022-08-02T02:55:27.903Z,101530.03
2022-08-02T02:56:02.254Z,101530.19
2022-08-02T02:56:33.066Z,101530.70
2022-08-02T02:57:03.486Z,101533.34
2022-08-02T02:57:33.902Z,101534.94
2022-08-02T02:58:04.323Z,101534.77
2022-08-02T02:58:34.745Z,101538.73
2022-08-02T02:59:05.163Z,101536.91
2022-08-02T02:59:35.594Z,101539.41
2022-08-02T03:00:06.016Z,101540.24
2022-08-02T03:00:36.460Z,101539.23
2022-08-02T03:01:06.950Z,101545.33
2022-08-02T03:01:56.526Z,101541.48
2022-08-02T03:02:13.144Z,101537.81
2022-08-02T03:02:43.813Z,101540.22
2022-08-02T03:03:14.231Z,101545.78
2022-08-02T03:03:45.141Z,101540.05
2022-08-02T03:04:15.565Z,101541.19
2022-08-02T03:04:57.474Z,101541.03
2022-08-02T03:05:21.309Z,101541.70
2022-08-02T03:05:51.727Z,101542.06
2022-08-02T03:06:22.153Z,101542.91
2022-08-02T03:06:52.565Z,101546.39
2022-08-02T03:07:22.990Z,101544.75
2022-08-02T03:07:53.410Z,101544.08
2022-08-02T03:08:23.830Z,101546.48
2022-08-02T03:08:54.980Z,101542.53
2022-08-02T03:09:25.401Z,101540.34
2022-08-02T03:09:55.822Z,101543.88
2022-08-02T03:10:26.255Z,101547.39
2022-08-02T03:10:56.673Z,101547.27
2022-08-02T03:11:27.094Z,101546.94
2022-08-02T03:11:57.514Z,101544.75
2022-08-02T03:12:31.928Z,101547.80
2022-08-02T03:13:02.800Z,101547.36
2022-08-02T03:13:37.506Z,101548.28
2022-08-02T03:14:08.043Z,101548.21
2022-08-02T03:14:38.463Z,101545.64
2022-08-02T03:15:08.884Z,101547.62
2022-08-02T03:15:39.313Z,101549.14
2022-08-02T03:16:09.731Z,101549.12
2022-08-02T03:16:40.150Z,101553.53
2022-08-02T03:17:10.575Z,101550.88
2022-08-02T03:17:40.993Z,101548.16
2022-08-02T03:18:11.411Z,101552.38
2022-08-02T03:18:41.829Z,101551.36
2022-08-02T03:19:12.253Z,101552.71
2022-08-02T03:19:42.676Z,101549.65
2022-08-02T03:20:13.098Z,101549.24
2022-08-02T03:20:43.522Z,101548.23
2022-08-02T03:21:13.937Z,101543.69
2022-08-02T03:21:44.359Z,101545.84
2022-08-02T03:22:14.778Z,101547.52
2022-08-02T03:22:45.198Z,101548.04
2022-08-02T03:23:15.620Z,101547.26
2022-08-02T03:23:46.041Z,101544.95
2022-08-02T03:24:16.460Z,101543.24
2022-08-02T03:24:51.783Z,101546.56
2022-08-02T03:25:22.210Z,101547.36
2022-08-02T03:25:52.632Z,101549.18
2022-08-02T03:26:23.051Z,101549.20
2022-08-02T03:26:53.481Z,101551.25
2022-08-02T03:27:23.906Z,101552.30
2022-08-02T03:27:54.324Z,101555.35
2022-08-02T03:28:24.766Z,101551.95
2022-08-02T03:28:55.185Z,101552.61
2022-08-02T03:29:25.605Z,101551.47
2022-08-02T03:29:56.023Z,101548.08
2022-08-02T03:30:26.451Z,101550.94
2022-08-02T03:30:56.871Z,101555.52
2022-08-02T03:31:27.289Z,101551.36
2022-08-02T03:32:02.615Z,101552.62
2022-08-02T03:32:33.036Z,101549.94
2022-08-02T03:33:03.459Z,101551.05
2022-08-02T03:33:33.878Z,101552.80
2022-08-02T03:34:04.295Z,101553.08
2022-08-02T03:34:34.717Z,101551.63
2022-08-02T03:35:05.135Z,101551.51
2022-08-02T03:35:35.561Z,101553.70
2022-08-02T03:36:05.980Z,101555.41
2022-08-02T03:36:36.784Z,101550.31
2022-08-02T03:37:07.203Z,101550.83
2022-08-02T03:37:37.623Z,101554.70
2022-08-02T03:38:08.043Z,101551.66
2022-08-02T03:38:38.463Z,101549.12
2022-08-02T03:39:08.880Z,101551.95
2022-08-02T03:39:41.454Z,101547.93
2022-08-02T03:40:14.628Z,101550.78
2022-08-02T03:40:45.050Z,101550.60
2022-08-02T03:41:15.470Z,101550.11
2022-08-02T03:41:45.891Z,101553.62
2022-08-02T03:42:16.309Z,101554.59
2022-08-02T03:42:46.729Z,101556.41
2022-08-02T03:43:17.153Z,101555.39
2022-08-02T03:43:47.567Z,101560.46
2022-08-02T03:44:17.998Z,101557.50
2022-08-02T03:44:48.418Z,101559.51
2022-08-02T03:45:18.847Z,101562.77
2022-08-02T03:45:49.268Z,101559.75
2022-08-02T03:46:19.690Z,101561.64
2022-08-02T03:46:50.110Z,101560.83
2022-08-02T03:47:20.535Z,101559.20
2022-08-02T03:47:50.956Z,101562.86
2022-08-02T03:48:34.970Z,101563.99
2022-08-02T03:48:56.730Z,101565.39
2022-08-02T03:49:27.193Z,101564.53
2022-08-02T03:49:57.583Z,101563.36
2022-08-02T03:50:28.012Z,101562.18
2022-08-02T03:50:58.432Z,101563.02
2022-08-02T03:51:28.854Z,101562.83
2022-08-02T03:51:59.273Z,101563.74
2022-08-02T03:52:29.694Z,101563.95
2022-08-02T03:53:00.129Z,101560.61
2022-08-02T03:53:30.533Z,101562.09
2022-08-02T03:54:00.953Z,101564.39
2022-08-02T03:54:34.619Z,101564.86
2022-08-02T03:55:06.708Z,101567.38
2022-08-02T03:55:37.139Z,101568.05
2022-08-02T03:56:07.556Z,101565.27
2022-08-02T03:56:37.978Z,101565.93
2022-08-02T03:57:09.694Z,101563.63
2022-08-02T03:57:40.195Z,101566.93
2022-08-02T03:58:10.618Z,101567.97
2022-08-02T03:58:43.603Z,101566.16
2022-08-02T03:59:16.098Z,101568.69
2022-08-02T03:59:46.579Z,101564.73
2022-08-02T04:00:16.991Z,101568.53
2022-08-02T04:00:47.507Z,101571.22
2022-08-02T04:01:17.955Z,101568.17
2022-08-02T04:01:48.362Z,101568.94
2022-08-02T04:02:18.781Z,101569.38
2022-08-02T04:02:49.203Z,101571.12
2022-08-02T04:03:20.098Z,101571.66
2022-08-02T04:03:50.593Z,101571.02
2022-08-02T04:04:21.027Z,101574.00
2022-08-02T04:04:51.434Z,101573.84
2022-08-02T04:05:21.869Z,101571.95
2022-08-02T04:06:03.615Z,101574.14
2022-08-02T04:06:28.561Z,101573.75
2022-08-02T04:06:58.961Z,101573.97
2022-08-02T04:08:31.797Z,101572.77
2022-08-02T04:08:35.165Z,101572.31
2022-08-02T04:08:40.734Z,101574.91
2022-08-02T04:09:11.156Z,101569.38
2022-08-02T04:09:41.571Z,101572.97
2022-08-02T04:10:13.573Z,101576.34
2022-08-02T04:10:43.999Z,101574.83
2022-08-02T04:11:14.418Z,101575.48
2022-08-02T04:11:44.837Z,101574.99
2022-08-02T04:12:15.258Z,101576.01
2022-08-02T04:12:45.676Z,101577.74
2022-08-02T04:13:16.097Z,101577.16
2022-08-02T04:13:47.196Z,101574.98
2022-08-02T04:14:20.119Z,101582.56
2022-08-02T04:14:50.537Z,101578.91
2022-08-02T04:15:20.959Z,101579.22
2022-08-02T04:15:51.391Z,101583.53
2022-08-02T04:16:21.811Z,101581.34
2022-08-02T04:16:52.229Z,101583.88
2022-08-02T04:17:22.698Z,101577.09
2022-08-02T04:17:53.122Z,101583.80
2022-08-02T04:18:23.542Z,101583.43
2022-08-02T04:18:53.965Z,101582.69
2022-08-02T04:19:24.386Z,101582.93
2022-08-02T04:19:54.805Z,101585.19
2022-08-02T04:20:25.234Z,101587.57
2022-08-02T04:20:55.700Z,101583.77
2022-08-02T04:21:26.117Z,101587.59
2022-08-02T04:21:56.538Z,101588.02
2022-08-02T04:22:26.960Z,101589.58
2022-08-02T04:22:57.380Z,101587.06
2022-08-02T04:23:27.798Z,101585.97
2022-08-02T04:24:01.430Z,101586.83
2022-08-02T04:24:34.703Z,101586.80
2022-08-02T04:25:05.122Z,101590.83
2022-08-02T04:25:40.233Z,101589.33
2022-08-02T04:26:11.142Z,101590.91
2022-08-02T04:26:41.563Z,101590.45
2022-08-02T04:27:49.372Z,101591.70
2022-08-02T04:27:50.777Z,101590.29
2022-08-02T04:28:27.695Z,101592.02
2022-08-02T04:28:58.527Z,101588.15
2022-08-02T04:29:28.947Z,101592.75
2022-08-02T04:29:59.372Z,101591.50
2022-08-02T04:30:29.804Z,101592.09
2022-08-02T04:31:00.223Z,101588.98
2022-08-02T04:31:30.644Z,101589.34
2022-08-02T04:32:01.073Z,101594.42
2022-08-02T04:32:31.488Z,101590.59
2022-08-02T04:33:01.908Z,101591.60
2022-08-02T04:33:32.326Z,101590.45
2022-08-02T04:34:02.745Z,101589.11
2022-08-02T04:34:33.164Z,101594.77
2022-08-02T04:35:19.855Z,101593.34
2022-08-02T04:35:38.917Z,101593.03
2022-08-02T04:36:09.336Z,101588.69
2022-08-02T04:36:39.760Z,101594.33
2022-08-02T04:37:10.178Z,101596.37
2022-08-02T04:38:08.799Z,101595.23
2022-08-02T04:38:16.056Z,101591.80
2022-08-02T04:38:46.433Z,101595.25
2022-08-02T04:39:18.955Z,101594.32
2022-08-02T04:39:49.376Z,101597.27
2022-08-02T04:40:19.799Z,101594.58
2022-08-02T04:40:50.230Z,101601.80
2022-08-02T04:41:20.649Z,101598.77
2022-08-02T04:41:55.730Z,101603.05
2022-08-02T04:42:26.407Z,101601.80
2022-08-02T04:42:56.824Z,101599.42
2022-08-02T04:43:27.243Z,101600.44
2022-08-02T04:43:57.676Z,101600.86
2022-08-02T04:44:28.100Z,101604.84
2022-08-02T04:44:58.522Z,101602.20
2022-08-02T04:45:28.939Z,101604.11
2022-08-02T04:45:59.366Z,101604.81
2022-08-02T04:46:29.789Z,101605.98
2022-08-02T04:47:04.781Z,101600.72
2022-08-02T04:48:01.550Z,101601.55
2022-08-02T04:48:10.852Z,101600.04
2022-08-02T04:48:41.275Z,101604.64
2022-08-02T04:49:11.803Z,101601.91
2022-08-02T04:49:42.262Z,101602.59
2022-08-02T04:50:12.650Z,101598.97
2022-08-02T04:50:43.077Z,101597.98
2022-08-02T04:51:13.499Z,101600.25
2022-08-02T04:51:43.921Z,101604.19
2022-08-02T04:52:14.584Z,101601.20
2022-08-02T04:52:46.018Z,101601.08
2022-08-02T04:53:16.431Z,101601.95
2022-08-02T04:53:46.853Z,101601.31
2022-08-02T04:54:17.273Z,101604.97
2022-08-02T04:54:47.696Z,101600.54
2022-08-02T04:55:18.117Z,101597.98
2022-08-02T04:55:50.037Z,101598.91
2022-08-02T04:56:20.458Z,101600.72
2022-08-02T04:56:50.882Z,101600.75
2022-08-02T04:57:21.303Z,101600.22
2022-08-02T04:57:52.832Z,101600.90
2022-08-02T04:58:39.963Z,101593.55
2022-08-02T04:58:58.918Z,101592.44
2022-08-02T04:59:29.338Z,101594.30
2022-08-02T04:59:59.761Z,101592.94
2022-08-02T05:00:30.205Z,101593.65
2022-08-02T05:01:00.655Z,101592.95
2022-08-02T05:01:31.051Z,101594.30
2022-08-02T05:02:01.470Z,101591.45
2022-08-02T05:02:31.890Z,101600.09
2022-08-02T05:03:02.310Z,101601.30
2022-08-02T05:03:32.736Z,101601.83
2022-08-02T05:04:03.159Z,101603.23
2022-08-02T05:04:33.569Z,101606.66
2022-08-02T05:05:09.827Z,101605.69
2022-08-02T05:05:39.313Z,101602.70
2022-08-02T05:06:18.985Z,101605.62
2022-08-02T05:06:45.065Z,101604.94
2022-08-02T05:07:15.484Z,101604.77
2022-08-02T05:07:45.907Z,101603.11
2022-08-02T05:08:16.323Z,101603.62
2022-08-02T05:08:46.742Z,101603.55
2022-08-02T05:09:22.065Z,101604.98
2022-08-02T05:09:52.488Z,101607.70
2022-08-02T05:10:22.905Z,101605.17
2022-08-02T05:10:53.346Z,101604.34
2022-08-02T05:11:34.572Z,101604.02
2022-08-02T05:11:59.084Z,101606.72
2022-08-02T05:12:29.694Z,101607.39
2022-08-02T05:13:00.115Z,101605.08
2022-08-02T05:13:30.537Z,101603.23
2022-08-02T05:14:00.970Z,101600.04
2022-08-02T05:14:31.397Z,101605.59
2022-08-02T05:15:01.816Z,101604.60
2022-08-02T05:15:33.521Z,101603.91
2022-08-02T05:16:03.954Z,101608.62
2022-08-02T05:16:34.377Z,101603.34
2022-08-02T05:17:04.799Z,101604.81
2022-08-02T05:17:35.218Z,101606.52
2022-08-02T05:18:05.640Z,101608.32
2022-08-02T05:18:36.060Z,101605.94
2022-08-02T05:19:06.485Z,101605.94
2022-08-02T05:19:36.903Z,101607.69
2022-08-02T05:20:07.323Z,101606.80
2022-08-02T05:20:37.743Z,101610.09
2022-08-02T05:21:08.173Z,101606.91
2022-08-02T05:21:38.595Z,101608.43
2022-08-02T05:22:09.380Z,101606.64
2022-08-02T05:22:39.876Z,101607.31
2022-08-02T05:23:10.297Z,101605.98
2022-08-02T05:23:40.718Z,101605.30
2022-08-02T05:24:11.144Z,101606.15
2022-08-02T05:24:41.565Z,101609.19
2022-08-02T05:25:15.169Z,101610.55
2022-08-02T05:25:45.585Z,101613.39
2022-08-02T05:26:16.019Z,101611.41
2022-08-02T05:26:46.487Z,101610.54
2022-08-02T05:27:21.098Z,101609.91
2022-08-02T05:27:52.185Z,101611.64
2022-08-02T05:28:22.604Z,101612.27
2022-08-02T05:28:53.028Z,101615.61
2022-08-02T05:29:23.454Z,101611.09
2022-08-02T05:29:56.303Z,101614.13
2022-08-02T05:30:27.602Z,101614.19
2022-08-02T05:30:58.006Z,101614.19
2022-08-02T05:31:28.438Z,101613.50
2022-08-02T05:31:58.859Z,101614.96
2022-08-02T05:32:29.279Z,101615.64
2022-08-02T05:32:59.697Z,101616.51
2022-08-02T05:33:30.122Z,101617.56
2022-08-02T05:34:00.539Z,101619.08
2022-08-02T05:34:30.959Z,101617.08
2022-08-02T05:35:01.380Z,101621.55
2022-08-02T05:35:31.802Z,101615.64
2022-08-02T05:36:02.219Z,101620.67
2022-08-02T05:36:32.648Z,101627.17
2022-08-02T05:37:03.070Z,101625.00
2022-08-02T05:37:38.390Z,101622.34
2022-08-02T05:38:09.999Z,101623.30
2022-08-02T05:38:40.644Z,101625.66
2022-08-02T05:39:19.055Z,101625.83
2022-08-02T05:39:55.810Z,101628.53
2022-08-02T05:40:25.377Z,101627.05
2022-08-02T05:40:56.169Z,101626.36
2022-08-02T05:41:26.598Z,101628.19
2022-08-02T05:41:57.019Z,101625.66
2022-08-02T05:42:27.437Z,101628.55
2022-08-02T05:42:57.862Z,101624.33
2022-08-02T05:43:28.281Z,101629.34
2022-08-02T05:43:58.700Z,101623.88
2022-08-02T05:44:29.131Z,101630.62
2022-08-02T05:44:59.551Z,101623.70
2022-08-02T05:45:29.970Z,101624.24
2022-08-02T05:46:00.437Z,101625.74
2022-08-02T05:46:30.818Z,101630.65
2022-08-02T05:47:01.241Z,101630.80
2022-08-02T05:47:31.661Z,101632.78
2022-08-02T05:48:02.687Z,101634.95
2022-08-02T05:48:34.379Z,101634.33
2022-08-02T05:49:04.907Z,101634.33
2022-08-02T05:49:35.352Z,101635.80
2022-08-02T05:50:05.762Z,101633.62
2022-08-02T05:50:36.176Z,101636.81
2022-08-02T05:51:06.597Z,101634.25
2022-08-02T05:51:37.029Z,101639.75
2022-08-02T05:52:07.449Z,101635.68
2022-08-02T05:52:37.866Z,101638.55